createdAt,value
2023-03-20T00:02:03.730Z,101151.16
2023-03-20T00:04:30.393Z,101142.50
2023-03-20T00:06:56.965Z,101151.16
2023-03-20T00:09:25.527Z,101149.50
2023-03-20T00:11:55.392Z,101145.00
2023-03-20T00:14:24.515Z,101145.00
2023-03-20T00:16:52.005Z,101147.22
2023-03-20T00:19:26.429Z,101154.22
2023-03-20T00:21:54.878Z,101141.34
2023-03-20T00:24:21.994Z,101142.19
2023-03-20T00:26:50.430Z,101139.91
2023-03-20T00:29:26.096Z,101137.97
2023-03-20T00:31:53.266Z,101147.75
2023-03-20T00:34:23.384Z,101144.09
2023-03-20T00:36:51.089Z,101146.06
2023-03-20T00:39:17.569Z,101142.69
2023-03-20T00:41:51.561Z,101135.38
2023-03-20T00:44:39.525Z,101136.78
2023-03-20T00:47:15.309Z,101128.97
2023-03-20T00:49:41.846Z,101141.00
2023-03-20T00:52:12.525Z,101132.88
2023-03-20T00:54:38.933Z,101132.03
2023-03-20T00:57:18.081Z,101133.72
2023-03-20T01:00:08.281Z,101129.22
2023-03-20T01:02:34.852Z,101125.88
2023-03-20T01:05:03.689Z,101125.59
2023-03-20T01:07:30.146Z,101122.50
2023-03-20T01:09:56.701Z,101114.97
2023-03-20T01:12:23.850Z,101120.75
2023-03-20T01:14:56.456Z,101129.66
2023-03-20T01:17:24.525Z,101127.41
2023-03-20T01:19:51.432Z,101131.09
2023-03-20T01:22:18.154Z,101142.00
2023-03-20T01:24:45.431Z,101134.22
2023-03-20T01:27:15.476Z,101135.31
2023-03-20T01:29:42.267Z,101138.09
2023-03-20T01:32:12.554Z,101141.44
2023-03-20T01:34:39.359Z,101140.31
2023-03-20T01:37:12.309Z,101139.25
2023-03-20T01:39:38.874Z,101149.25
2023-03-20T01:42:07.107Z,101151.53
2023-03-20T01:44:36.153Z,101159.34
2023-03-20T01:47:12.126Z,101151.53
2023-03-20T01:50:23.479Z,101150.66
2023-03-20T01:53:21.113Z,101152.03
2023-03-20T01:55:56.104Z,101152.63
2023-03-20T01:58:31.148Z,101148.97
2023-03-20T02:00:58.377Z,101149.03
2023-03-20T02:03:25.887Z,101149.91
2023-03-20T02:06:11.379Z,101147.66
2023-03-20T02:09:13.324Z,101150.41
2023-03-20T02:11:44.882Z,101145.59
2023-03-20T02:14:13.206Z,101148.19
2023-03-20T02:16:48.824Z,101157.63
2023-03-20T02:19:29.405Z,101153.44
2023-03-20T02:22:26.787Z,101154.84
2023-03-20T02:25:15.795Z,101149.75
2023-03-20T02:27:53.234Z,101153.38
2023-03-20T02:30:47.235Z,101148.59
2023-03-20T02:33:26.868Z,101153.94
2023-03-20T02:36:22.683Z,101152.81
2023-03-20T02:39:11.256Z,101152.56
2023-03-20T02:42:03.778Z,101153.66
2023-03-20T02:44:36.248Z,101151.66
2023-03-20T02:47:07.987Z,101147.78
2023-03-20T02:49:52.237Z,101154.47
2023-03-20T02:52:32.387Z,101158.13
2023-03-20T02:55:14.272Z,101156.13
2023-03-20T02:58:08.250Z,101156.38
2023-03-20T03:00:40.760Z,101156.91
2023-03-20T03:03:38.252Z,101159.69
2023-03-20T03:06:14.997Z,101160.28
2023-03-20T03:08:47.811Z,101154.75
2023-03-20T03:11:14.235Z,101149.72
2023-03-20T03:13:54.397Z,101149.75
2023-03-20T03:16:26.564Z,101158.88
2023-03-20T03:19:03.436Z,101167.25
2023-03-20T03:21:32.333Z,101168.94
2023-03-20T03:23:59.811Z,101166.16
2023-03-20T03:26:30.018Z,101169.50
2023-03-20T03:29:01.656Z,101160.00
2023-03-20T03:31:29.923Z,101161.69
2023-03-20T03:33:58.773Z,101165.31
2023-03-20T03:36:42.992Z,101164.75
2023-03-20T03:39:21.390Z,101165.06
2023-03-20T03:41:57.377Z,101161.72
2023-03-20T03:44:49.430Z,101158.34
2023-03-20T03:47:24.140Z,101164.75
2023-03-20T03:50:02.459Z,101165.91
2023-03-20T03:52:32.373Z,101164.25
2023-03-20T03:55:07.095Z,101164.00
2023-03-20T03:57:49.319Z,101166.53
2023-03-20T04:00:21.745Z,101164.31
2023-03-20T04:02:52.302Z,101167.13
2023-03-20T04:05:20.679Z,101169.66
2023-03-20T04:07:53.014Z,101171.91
2023-03-20T04:10:19.461Z,101171.06
2023-03-20T04:12:45.941Z,101178.88
2023-03-20T04:15:13.955Z,101182.78
2023-03-20T04:17:41.834Z,101179.13
2023-03-20T04:20:11.361Z,101180.88
2023-03-20T04:22:37.992Z,101186.13
2023-03-20T04:25:09.317Z,101180.00
2023-03-20T04:27:36.238Z,101185.59
2023-03-20T04:30:11.268Z,101187.84
2023-03-20T04:32:57.273Z,101182.81
2023-03-20T04:35:35.228Z,101185.06
2023-03-20T04:38:07.168Z,101188.13
2023-03-20T04:40:34.961Z,101185.66
2023-03-20T04:43:01.410Z,101185.41
2023-03-20T04:45:27.879Z,101187.91
2023-03-20T04:47:54.268Z,101191.28
2023-03-20T04:50:22.511Z,101186.47
2023-03-20T04:52:50.906Z,101190.16
2023-03-20T04:55:18.009Z,101191.84
2023-03-20T04:57:44.712Z,101194.06
2023-03-20T05:00:12.349Z,101192.66
2023-03-20T05:02:38.812Z,101190.69
2023-03-20T05:05:05.710Z,101199.38
2023-03-20T05:07:35.274Z,101190.69
2023-03-20T05:10:06.633Z,101195.19
2023-03-20T05:12:42.737Z,101194.63
2023-03-20T05:15:37.778Z,101196.88
2023-03-20T05:18:04.313Z,101197.16
2023-03-20T05:20:45.710Z,101202.47
2023-03-20T05:23:29.183Z,101199.38
2023-03-20T05:26:15.858Z,101192.94
2023-03-20T05:29:16.634Z,101205.50
2023-03-20T05:32:02.916Z,101204.41
2023-03-20T05:34:41.121Z,101206.91
2023-03-20T05:37:21.481Z,101205.81
2023-03-20T05:40:06.117Z,101206.34
2023-03-20T05:42:44.895Z,101208.56
2023-03-20T05:45:20.545Z,101208.06
2023-03-20T05:48:06.974Z,101205.53
2023-03-20T05:50:39.237Z,101204.97
2023-03-20T05:53:16.311Z,101210.53
2023-03-20T05:55:44.619Z,101216.38
2023-03-20T05:58:42.341Z,101218.91
2023-03-20T06:01:44.295Z,101223.97
2023-03-20T06:04:21.777Z,101227.06
2023-03-20T06:07:08.182Z,101235.72
2023-03-20T06:09:35.869Z,101237.59
2023-03-20T06:12:06.761Z,101245.97
2023-03-20T06:14:33.391Z,101253.16
2023-03-20T06:17:02.946Z,101256.19
2023-03-20T06:19:45.172Z,101252.34
2023-03-20T06:22:11.570Z,101256.69
2023-03-20T06:24:38.210Z,101267.41
2023-03-20T06:27:05.262Z,101271.31
2023-03-20T06:29:32.107Z,101276.59
2023-03-20T06:32:12.174Z,101274.63
2023-03-20T06:34:38.621Z,101284.06
2023-03-20T06:37:05.221Z,101294.63
2023-03-20T06:39:33.038Z,101291.13
2023-03-20T06:41:59.756Z,101297.84
2023-03-20T06:44:27.013Z,101290.75
2023-03-20T06:47:16.720Z,101303.13
2023-03-20T06:49:45.911Z,101306.47
2023-03-20T06:52:17.596Z,101297.66
2023-03-20T06:54:51.145Z,101310.28
2023-03-20T06:57:18.199Z,101311.47
2023-03-20T06:59:44.669Z,101310.28
2023-03-20T07:02:11.654Z,101317.69
2023-03-20T07:04:38.799Z,101316.69
2023-03-20T07:07:05.509Z,101310.63
2023-03-20T07:09:34.366Z,101314.91
2023-03-20T07:12:01.104Z,101314.63
2023-03-20T07:14:27.499Z,101313.69
2023-03-20T07:16:58.010Z,101311.88
2023-03-20T07:19:24.592Z,101308.63
2023-03-20T07:22:04.313Z,101316.00
2023-03-20T07:24:38.430Z,101312.53
2023-03-20T07:27:04.887Z,101311.03
2023-03-20T07:29:33.150Z,101311.25
2023-03-20T07:32:01.065Z,101317.41
2023-03-20T07:34:32.509Z,101316.09
2023-03-20T07:37:00.105Z,101322.88
2023-03-20T07:39:27.271Z,101318.94
2023-03-20T07:42:13.764Z,101323.09
2023-03-20T07:44:50.272Z,101326.25
2023-03-20T07:47:16.687Z,101318.50
2023-03-20T07:49:43.110Z,101323.34
2023-03-20T07:52:09.740Z,101319.72
2023-03-20T07:54:36.422Z,101328.19
2023-03-20T07:57:05.284Z,101322.97
2023-03-20T07:59:31.969Z,101328.09
2023-03-20T08:01:58.568Z,101333.31
2023-03-20T08:04:25.485Z,101333.78
2023-03-20T08:06:52.047Z,101342.59
2023-03-20T08:09:18.992Z,101343.66
2023-03-20T08:11:46.013Z,101348.66
2023-03-20T08:14:13.007Z,101361.63
2023-03-20T08:16:39.453Z,101350.56
2023-03-20T08:19:06.611Z,101349.19
2023-03-20T08:21:33.080Z,101355.66
2023-03-20T08:23:59.464Z,101354.03
2023-03-20T08:26:25.932Z,101347.66
2023-03-20T08:28:52.761Z,101344.94
2023-03-20T08:31:19.328Z,101338.13
2023-03-20T08:33:46.926Z,101326.84
2023-03-20T08:36:15.606Z,101329.34
2023-03-20T08:38:42.954Z,101341.22
2023-03-20T08:41:09.470Z,101335.28
2023-03-20T08:43:36.398Z,101343.84
2023-03-20T08:46:02.938Z,101338.88
2023-03-20T08:48:29.480Z,101342.00
2023-03-20T08:50:56.015Z,101353.66
2023-03-20T08:53:31.274Z,101344.69
2023-03-20T08:55:57.697Z,101345.78
2023-03-20T08:58:24.144Z,101351.91
2023-03-20T09:00:50.711Z,101353.63
2023-03-20T09:03:19.433Z,101356.19
2023-03-20T09:05:47.667Z,101361.00
2023-03-20T09:08:14.234Z,101358.22
2023-03-20T09:10:41.199Z,101356.81
2023-03-20T09:13:25.704Z,101354.53
2023-03-20T09:15:54.153Z,101357.59
2023-03-20T09:18:21.362Z,101355.44
2023-03-20T09:20:48.298Z,101343.97
2023-03-20T09:23:15.257Z,101349.59
2023-03-20T09:25:41.670Z,101346.81
2023-03-20T09:28:08.356Z,101350.19
2023-03-20T09:30:35.124Z,101346.50
2023-03-20T09:33:01.842Z,101346.00
2023-03-20T09:35:28.584Z,101349.03
2023-03-20T09:37:55.181Z,101348.47
2023-03-20T09:40:32.596Z,101343.16
2023-03-20T09:43:36.534Z,101347.38
2023-03-20T09:46:06.063Z,101342.31
2023-03-20T09:48:40.677Z,101349.03
2023-03-20T09:51:12.981Z,101351.56
2023-03-20T09:53:46.343Z,101358.59
2023-03-20T09:56:23.312Z,101363.38
2023-03-20T09:58:56.338Z,101358.06
2023-03-20T10:01:26.783Z,101359.66
2023-03-20T10:03:56.973Z,101352.75
2023-03-20T10:06:23.854Z,101362.00
2023-03-20T10:08:51.964Z,101350.22
2023-03-20T10:11:54.570Z,101358.38
2023-03-20T10:14:24.967Z,101361.44
2023-03-20T10:17:09.765Z,101360.81
2023-03-20T10:19:56.833Z,101359.13
2023-03-20T10:22:36.706Z,101356.38
2023-03-20T10:25:49.205Z,101352.47
2023-03-20T10:28:38.915Z,101347.41
2023-03-20T10:31:25.521Z,101356.69
2023-03-20T10:34:06.908Z,101359.22
2023-03-20T10:36:51.201Z,101352.72
2023-03-20T10:39:51.605Z,101346.59
2023-03-20T10:42:24.470Z,101349.66
2023-03-20T10:45:06.238Z,101343.47
2023-03-20T10:47:38.505Z,101357.25
2023-03-20T10:50:30.245Z,101344.31
2023-03-20T10:52:57.716Z,101346.84
2023-03-20T10:55:30.821Z,101338.97
2023-03-20T10:58:08.741Z,101344.03
2023-03-20T11:00:35.446Z,101342.66
2023-03-20T11:03:01.998Z,101334.78
2023-03-20T11:05:34.316Z,101330.56
2023-03-20T11:08:07.577Z,101334.22
2023-03-20T11:10:37.124Z,101338.44
2023-03-20T11:13:15.442Z,101333.91
2023-03-20T11:15:41.896Z,101333.63
2023-03-20T11:18:14.389Z,101338.69
2023-03-20T11:20:52.238Z,101340.41
2023-03-20T11:23:24.922Z,101340.94
2023-03-20T11:26:00.965Z,101335.88
2023-03-20T11:28:33.971Z,101329.19
2023-03-20T11:31:16.990Z,101339.78
2023-03-20T11:33:46.651Z,101339.78
2023-03-20T11:36:22.929Z,101335.59
2023-03-20T11:38:51.464Z,101324.41
2023-03-20T11:41:41.949Z,101327.16
2023-03-20T11:44:22.735Z,101324.09
2023-03-20T11:47:01.664Z,101316.53
2023-03-20T11:49:28.145Z,101321.28
2023-03-20T11:51:59.413Z,101308.63
2023-03-20T11:54:26.954Z,101308.88
2023-03-20T11:56:56.709Z,101311.19
2023-03-20T11:59:31.748Z,101305.53
2023-03-20T12:01:58.945Z,101315.34
2023-03-20T12:04:31.642Z,101307.50
2023-03-20T12:07:19.296Z,101303.59
2023-03-20T12:09:51.282Z,101296.00
2023-03-20T12:12:29.853Z,101290.63
2023-03-20T12:15:01.156Z,101292.31
2023-03-20T12:17:30.473Z,101294.59
2023-03-20T12:20:05.446Z,101288.41
2023-03-20T12:22:37.930Z,101290.06
2023-03-20T12:25:12.239Z,101279.97
2023-03-20T12:27:48.682Z,101284.13
2023-03-20T12:30:39.794Z,101282.66
2023-03-20T12:33:15.917Z,101275.66
2023-03-20T12:35:48.037Z,101272.66
2023-03-20T12:38:24.389Z,101272.38
2023-03-20T12:40:54.842Z,101278.25
2023-03-20T12:43:26.856Z,101260.00
2023-03-20T12:46:16.477Z,101263.34
2023-03-20T12:48:50.033Z,101258.22
2023-03-20T12:51:51.070Z,101263.00
2023-03-20T12:54:27.944Z,101265.81
2023-03-20T12:57:22.110Z,101268.06
2023-03-20T13:00:18.341Z,101264.22
2023-03-20T13:02:56.960Z,101263.63
2023-03-20T13:05:31.049Z,101257.72
2023-03-20T13:08:16.004Z,101255.84
2023-03-20T13:11:02.924Z,101263.72
2023-03-20T13:13:40.304Z,101259.50
2023-03-20T13:16:32.993Z,101258.09
2023-03-20T13:19:16.871Z,101253.00
2023-03-20T13:21:57.307Z,101252.41
2023-03-20T13:24:40.188Z,101252.38
2023-03-20T13:27:28.451Z,101252.31
2023-03-20T13:30:22.543Z,101247.78
2023-03-20T13:33:16.891Z,101243.34
2023-03-20T13:35:59.121Z,101248.16
2023-03-20T13:38:33.278Z,101247.34
2023-03-20T13:41:03.535Z,101242.81
2023-03-20T13:43:48.389Z,101245.97
2023-03-20T13:46:19.984Z,101242.66
2023-03-20T13:48:46.664Z,101240.09
2023-03-20T13:51:26.010Z,101236.44
2023-03-20T13:54:21.185Z,101242.38
2023-03-20T13:57:07.395Z,101250.28
2023-03-20T13:59:43.474Z,101243.81
2023-03-20T14:02:28.735Z,101240.13
2023-03-20T14:05:04.416Z,101234.53
2023-03-20T14:07:36.206Z,101247.44
2023-03-20T14:10:20.657Z,101242.34
2023-03-20T14:13:00.677Z,101233.63
2023-03-20T14:15:31.446Z,101237.78
2023-03-20T14:17:58.203Z,101240.09
2023-03-20T14:20:37.023Z,101237.56
2023-03-20T14:23:04.735Z,101231.19
2023-03-20T14:25:41.880Z,101229.22
2023-03-20T14:28:11.006Z,101228.06
2023-03-20T14:30:50.689Z,101221.59
2023-03-20T14:33:17.071Z,101222.72
2023-03-20T14:35:51.074Z,101229.44
2023-03-20T14:38:22.730Z,101220.25
2023-03-20T14:41:26.295Z,101217.16
2023-03-20T14:44:03.566Z,101211.81
2023-03-20T14:47:04.302Z,101225.84
2023-03-20T14:49:50.399Z,101218.28
2023-03-20T14:52:27.258Z,101219.97
2023-03-20T14:54:54.719Z,101220.44
2023-03-20T14:57:52.798Z,101214.28
2023-03-20T15:00:23.723Z,101213.19
2023-03-20T15:03:05.445Z,101200.25
2023-03-20T15:05:34.837Z,101201.03
2023-03-20T15:08:08.554Z,101208.06
2023-03-20T15:10:38.019Z,101208.97
2023-03-20T15:13:07.907Z,101208.97
2023-03-20T15:15:34.369Z,101198.81
2023-03-20T15:18:14.061Z,101194.13
2023-03-20T15:20:44.347Z,101193.56
2023-03-20T15:23:10.746Z,101198.03
2023-03-20T15:25:45.462Z,101198.25
2023-03-20T15:28:16.699Z,101192.13
2023-03-20T15:30:48.789Z,101181.41
2023-03-20T15:33:20.120Z,101185.66
2023-03-20T15:35:46.602Z,101192.69
2023-03-20T15:38:16.164Z,101192.94
2023-03-20T15:40:50.579Z,101186.47
2023-03-20T15:43:25.803Z,101185.59
2023-03-20T15:46:14.240Z,101185.94
2023-03-20T15:48:47.390Z,101191.34
2023-03-20T15:51:14.189Z,101185.97
2023-03-20T15:53:44.587Z,101190.19
2023-03-20T15:56:18.704Z,101191.31
2023-03-20T15:58:49.031Z,101202.56
2023-03-20T16:01:21.487Z,101196.34
2023-03-20T16:03:49.158Z,101200.84
2023-03-20T16:06:19.495Z,101206.44
2023-03-20T16:08:55.756Z,101212.03
2023-03-20T16:11:22.160Z,101214.88
2023-03-20T16:13:51.552Z,101210.41
2023-03-20T16:16:21.645Z,101207.09
2023-03-20T16:18:48.876Z,101212.97
2023-03-20T16:21:28.935Z,101209.00
2023-03-20T16:23:57.696Z,101208.28
2023-03-20T16:26:27.100Z,101216.94
2023-03-20T16:28:59.854Z,101204.88
2023-03-20T16:31:48.050Z,101209.09
2023-03-20T16:34:21.806Z,101214.72
2023-03-20T16:36:54.193Z,101211.03
2023-03-20T16:39:24.505Z,101208.50
2023-03-20T16:42:03.614Z,101205.72
2023-03-20T16:44:36.358Z,101202.91
2023-03-20T16:47:20.223Z,101206.56
2023-03-20T16:50:16.895Z,101208.81
2023-03-20T16:52:49.937Z,101214.22
2023-03-20T16:55:29.278Z,101209.13
2023-03-20T16:58:00.231Z,101205.22
2023-03-20T17:00:33.131Z,101204.66
2023-03-20T17:03:06.781Z,101217.28
2023-03-20T17:06:17.526Z,101205.81
2023-03-20T17:08:48.540Z,101217.28
2023-03-20T17:11:17.692Z,101213.91
2023-03-20T17:13:44.203Z,101216.47
2023-03-20T17:16:16.024Z,101225.72
2023-03-20T17:18:45.754Z,101220.69
2023-03-20T17:21:12.819Z,101222.66
2023-03-20T17:23:39.850Z,101222.06
2023-03-20T17:26:11.825Z,101224.06
2023-03-20T17:28:38.640Z,101224.03
2023-03-20T17:31:06.353Z,101233.31
2023-03-20T17:33:33.668Z,101226.00
2023-03-20T17:36:00.801Z,101230.22
2023-03-20T17:38:27.567Z,101230.53
2023-03-20T17:40:53.979Z,101231.91
2023-03-20T17:43:20.751Z,101232.44
2023-03-20T17:45:47.729Z,101240.28
2023-03-20T17:48:20.816Z,101238.06
2023-03-20T17:50:53.060Z,101238.31
2023-03-20T17:53:28.954Z,101243.91
2023-03-20T17:55:55.544Z,101244.22
2023-03-20T17:58:23.732Z,101243.91
2023-03-20T18:00:51.972Z,101242.50
2023-03-20T18:03:21.966Z,101248.16
2023-03-20T18:05:50.636Z,101235.22
2023-03-20T18:08:21.210Z,101244.75
2023-03-20T18:10:52.847Z,101240.31
2023-03-20T18:13:21.143Z,101243.09
2023-03-20T18:15:49.549Z,101240.28
2023-03-20T18:18:16.246Z,101236.63
2023-03-20T18:20:43.107Z,101236.38
2023-03-20T18:23:09.946Z,101233.00
2023-03-20T18:25:36.393Z,101233.84
2023-03-20T18:28:05.498Z,101238.88
2023-03-20T18:30:41.088Z,101227.97
2023-03-20T18:33:08.059Z,101231.91
2023-03-20T18:35:36.121Z,101233.28
2023-03-20T18:38:03.041Z,101236.34
2023-03-20T18:40:36.287Z,101241.13
2023-03-20T18:43:03.168Z,101248.13
2023-03-20T18:45:31.117Z,101246.97
2023-03-20T18:47:58.524Z,101241.94
2023-03-20T18:50:28.739Z,101243.63
2023-03-20T18:52:57.393Z,101242.78
2023-03-20T18:55:26.128Z,101244.16
2023-03-20T18:57:53.036Z,101250.88
2023-03-20T19:00:24.606Z,101248.38
2023-03-20T19:02:54.631Z,101254.22
2023-03-20T19:05:22.181Z,101253.13
2023-03-20T19:07:49.262Z,101251.72
2023-03-20T19:10:35.897Z,101252.53
2023-03-20T19:13:04.694Z,101244.13
2023-03-20T19:15:35.865Z,101248.06
2023-03-20T19:18:04.206Z,101254.22
2023-03-20T19:20:41.707Z,101250.28
2023-03-20T19:23:10.529Z,101252.25
2023-03-20T19:25:37.857Z,101254.78
2023-03-20T19:28:05.521Z,101258.38
2023-03-20T19:30:37.974Z,101258.66
2023-03-20T19:33:06.312Z,101251.09
2023-03-20T19:36:01.103Z,101256.13
2023-03-20T19:38:21.625Z,101258.91
2023-03-20T19:40:53.060Z,101260.28
2023-03-20T19:43:23.187Z,101251.63
2023-03-20T19:45:58.396Z,101249.38
2023-03-20T19:48:43.283Z,101250.25
2023-03-20T19:51:21.441Z,101254.13
2023-03-20T19:53:48.167Z,101256.06
2023-03-20T19:56:16.600Z,101250.22
2023-03-20T19:58:43.384Z,101263.63
2023-03-20T20:01:15.977Z,101255.19
2023-03-20T20:03:43.178Z,101255.75
2023-03-20T20:06:09.944Z,101261.94
2023-03-20T20:08:48.039Z,101256.63
2023-03-20T20:11:15.474Z,101251.31
2023-03-20T20:14:03.837Z,101249.34
2023-03-20T20:16:29.261Z,101250.47
2023-03-20T20:18:55.853Z,101246.00
2023-03-20T20:24:08.731Z,101242.34
2023-03-20T20:26:40.552Z,101236.44
2023-03-20T20:29:14.315Z,101243.72
2023-03-20T20:31:40.795Z,101226.94
2023-03-20T20:35:07.256Z,101244.28
2023-03-20T20:39:40.106Z,101240.06
2023-03-20T20:42:06.533Z,101243.97
2023-03-20T20:44:32.940Z,101242.34
2023-03-20T20:46:59.404Z,101240.91
2023-03-20T20:49:25.813Z,101238.69
2023-03-20T20:51:52.219Z,101246.22
2023-03-20T20:54:18.996Z,101237.53
2023-03-20T20:56:45.436Z,101243.44
2023-03-20T20:59:12.574Z,101250.66
2023-03-20T21:01:39.025Z,101248.13
2023-03-20T21:04:05.907Z,101247.84
2023-03-20T21:07:03.569Z,101232.16
2023-03-20T21:09:19.298Z,101226.59
2023-03-20T21:11:46.405Z,101219.28
2023-03-20T21:14:14.318Z,101227.09
2023-03-20T21:16:40.712Z,101234.06
2023-03-20T21:19:07.611Z,101241.63
2023-03-20T21:21:35.031Z,101229.81
2023-03-20T21:24:01.996Z,101217.59
2023-03-20T21:26:28.393Z,101224.00
2023-03-20T21:28:54.955Z,101230.41
2023-03-20T21:31:29.410Z,101236.00
2023-03-20T21:33:57.368Z,101225.63
2023-03-20T21:36:23.998Z,101235.69
2023-03-20T21:39:07.399Z,101239.63
2023-03-20T21:41:35.805Z,101253.31
2023-03-20T21:44:02.534Z,101254.72
2023-03-20T21:50:07.806Z,101255.25
2023-03-20T21:55:27.517Z,101261.59
2023-03-20T22:03:11.817Z,101256.84
2023-03-20T22:06:24.058Z,101268.03
2023-03-20T22:09:30.849Z,101269.47
2023-03-20T22:15:04.053Z,101271.06
2023-03-20T22:20:35.373Z,101262.97
2023-03-20T22:25:49.931Z,101265.19
2023-03-20T22:28:33.312Z,101270.47
2023-03-20T22:34:23.742Z,101265.69
2023-03-20T22:39:45.827Z,101268.69
2023-03-20T22:45:00.375Z,101263.34
2023-03-20T22:47:22.014Z,101266.97
2023-03-20T22:49:48.495Z,101265.03
2023-03-20T22:52:29.075Z,101258.59
2023-03-20T22:54:58.658Z,101266.63
2023-03-20T22:57:38.484Z,101269.44
2023-03-20T23:00:10.440Z,101268.09
2023-03-20T23:02:37.057Z,101264.19
2023-03-20T23:05:03.624Z,101261.66
2023-03-20T23:07:30.073Z,101264.72
2023-03-20T23:09:56.475Z,101259.72
2023-03-20T23:12:22.877Z,101256.63
2023-03-20T23:14:49.308Z,101259.09
2023-03-20T23:17:18.345Z,101254.91
2023-03-20T23:19:49.237Z,101265.50
2023-03-20T23:22:18.880Z,101255.47
2023-03-20T23:24:45.417Z,101258.03
2023-03-20T23:27:11.808Z,101261.63
2023-03-20T23:29:38.210Z,101254.88
2023-03-20T23:32:05.239Z,101252.94
2023-03-20T23:34:31.784Z,101264.69
2023-03-20T23:36:58.213Z,101266.91
2023-03-20T23:39:24.642Z,101259.94
2023-03-20T23:42:08.441Z,101263.03
2023-03-20T23:44:39.539Z,101263.31
2023-03-20T23:47:17.959Z,101254.03
2023-03-20T23:49:46.234Z,101258.84
2023-03-20T23:52:12.815Z,101255.25
2023-03-20T23:54:39.215Z,101251.25
2023-03-20T23:57:05.630Z,101258.00
2023-03-20T23:59:32.276Z,101251.53
